Grand Canyon, AZ

5:00 AM MST on November 21, 2017 (GMT -0700)
Grand Canyon National Park | | Change Station

Elev 6608 ft 35.95 °N, 112.15 °W | Updated 6 minutes ago

Overcast
Overcast
27 °F
Feels Like 20 °F
N
6
Wind Variable Wind from ENE

Today
High -- | Low -- °F
--% Chance of Precip.
Yesterday
High -- | Low -- °F
Precip. -- in
Pressure 30.23 in
Visibility 0.8 miles
Clouds
Windchill 20 °F
Dew Point 4 °F
Humidity 37%
Rainfall 0.00 in
Snow Depth Not available.
7:11 AM 5:17 PM
Waxing Crescent, 8% visible
METAR KGCN 211154Z AUTO 06005KT 3/4SM HZ VV001 M03/M16 A3030 RMK AO2 SLP237 T10281156 11022 21039 51009
Pressure 30.23 in
Visibility 0.8 miles
Clouds
Windchill 20 °F
Dew Point 4 °F
Humidity 37%
Rainfall 0.00 in
Snow Depth Not available.
7:11 AM 5:17 PM
Waxing Crescent, 8% visible
METAR KGCN 211154Z AUTO 06005KT 3/4SM HZ VV001 M03/M16 A3030 RMK AO2 SLP237 T10281156 11022 21039 51009

Get Severe Weather Alerts

Thanks for signing up!

Be on the lookout for a verification email in your inbox.

You'll start receiving the daily forecast at 6 AM.

×

10-Day Weather Forecast

Almanac

Astronomy

Nov. 21, 2017 Rise Set
Actual Time
Civil Twilight
Nautical Twilight
Astronomical Twilight
Moon
Length of Visible Light
Length of Day
Tomorrow will be .
, % of the Moon is Illuminated

Today's Extremes

State Highs State Lows

Community

WunderPhotos

Category 6

Welcome to Category 6. This is the collective home for Weather Underground's featured writeups by Dr. Jeff Masters (right), Bob Henson (left), Chris Burt, and other regular contributors.

Nearby

Air Quality

  Air Quality AQ Index Pollutant
Not available.

Snow Depth

Station Depth Elevation

Earthquake Activity

City Distance Mag. Time & Date
Minimum magnitude displayed is 2.5.

Coastal Water Temperatures

Place Temperature

Stations

Nearby Weather Stations

Station Location Temp. Windchill Dew Point Humidity Wind Precip. Elev Updated Type
                   

Watches & Warnings

There are currently no watches in effect.